sensor_id;sensor_type;location;lat;lon;timestamp;temperature;humidity
16827;DHT22;8530;49.540;8.576;2023-07-02T00:01:35;19.00;92.60
16827;DHT22;8530;49.540;8.576;2023-07-02T00:04:02;19.00;92.30
16827;DHT22;8530;49.540;8.576;2023-07-02T00:06:30;19.00;92.10
16827;DHT22;8530;49.540;8.576;2023-07-02T00:08:57;19.00;91.80
16827;DHT22;8530;49.540;8.576;2023-07-02T00:11:24;18.90;91.60
16827;DHT22;8530;49.540;8.576;2023-07-02T00:13:51;18.90;91.40
16827;DHT22;8530;49.540;8.576;2023-07-02T00:16:17;18.90;91.20
16827;DHT22;8530;49.540;8.576;2023-07-02T00:18:44;19.00;91.00
16827;DHT22;8530;49.540;8.576;2023-07-02T00:21:13;19.00;90.80
16827;DHT22;8530;49.540;8.576;2023-07-02T00:23:41;19.00;90.50
16827;DHT22;8530;49.540;8.576;2023-07-02T00:26:08;19.00;90.30
16827;DHT22;8530;49.540;8.576;2023-07-02T00:28:35;19.10;90.10
16827;DHT22;8530;49.540;8.576;2023-07-02T00:31:01;19.10;89.60
16827;DHT22;8530;49.540;8.576;2023-07-02T00:33:31;19.10;89.00
16827;DHT22;8530;49.540;8.576;2023-07-02T00:35:58;19.20;88.50
16827;DHT22;8530;49.540;8.576;2023-07-02T00:38:26;19.20;87.90
16827;DHT22;8530;49.540;8.576;2023-07-02T00:40:54;19.20;87.30
16827;DHT22;8530;49.540;8.576;2023-07-02T00:43:21;19.20;86.70
16827;DHT22;8530;49.540;8.576;2023-07-02T00:45:47;19.20;86.30
16827;DHT22;8530;49.540;8.576;2023-07-02T00:48:15;19.30;86.00
16827;DHT22;8530;49.540;8.576;2023-07-02T00:50:41;19.20;85.40
16827;DHT22;8530;49.540;8.576;2023-07-02T00:53:08;19.20;85.00
16827;DHT22;8530;49.540;8.576;2023-07-02T00:55:35;19.20;84.70
16827;DHT22;8530;49.540;8.576;2023-07-02T00:58:03;19.20;84.30
16827;DHT22;8530;49.540;8.576;2023-07-02T01:00:29;19.20;84.00
16827;DHT22;8530;49.540;8.576;2023-07-02T01:02:57;19.10;83.60
16827;DHT22;8530;49.540;8.576;2023-07-02T01:05:25;19.10;83.50
16827;DHT22;8530;49.540;8.576;2023-07-02T01:07:51;19.00;83.20
16827;DHT22;8530;49.540;8.576;2023-07-02T01:10:18;19.00;83.10
16827;DHT22;8530;49.540;8.576;2023-07-02T01:12:46;19.00;82.80
16827;DHT22;8530;49.540;8.576;2023-07-02T01:15:15;19.00;82.60
16827;DHT22;8530;49.540;8.576;2023-07-02T01:17:42;18.90;82.40
16827;DHT22;8530;49.540;8.576;2023-07-02T01:20:11;18.90;82.40
16827;DHT22;8530;49.540;8.576;2023-07-02T01:22:39;18.90;82.40
16827;DHT22;8530;49.540;8.576;2023-07-02T01:25:06;18.90;82.40
16827;DHT22;8530;49.540;8.576;2023-07-02T01:27:34;18.90;82.30
16827;DHT22;8530;49.540;8.576;2023-07-02T01:30:01;19.00;82.40
16827;DHT22;8530;49.540;8.576;2023-07-02T01:32:29;19.00;82.30
16827;DHT22;8530;49.540;8.576;2023-07-02T01:34:56;19.00;82.30
16827;DHT22;8530;49.540;8.576;2023-07-02T01:37:25;19.00;82.30
16827;DHT22;8530;49.540;8.576;2023-07-02T01:39:52;19.10;82.40
16827;DHT22;8530;49.540;8.576;2023-07-02T01:42:19;19.10;82.30
16827;DHT22;8530;49.540;8.576;2023-07-02T01:44:47;19.10;82.30
16827;DHT22;8530;49.540;8.576;2023-07-02T01:47:14;19.10;82.30
16827;DHT22;8530;49.540;8.576;2023-07-02T01:49:42;19.10;82.30
16827;DHT22;8530;49.540;8.576;2023-07-02T01:52:08;19.10;82.30
16827;DHT22;8530;49.540;8.576;2023-07-02T01:54:36;19.10;82.20
16827;DHT22;8530;49.540;8.576;2023-07-02T01:57:04;19.10;82.30
16827;DHT22;8530;49.540;8.576;2023-07-02T01:59:31;19.10;82.30
16827;DHT22;8530;49.540;8.576;2023-07-02T02:01:57;19.10;82.30
16827;DHT22;8530;49.540;8.576;2023-07-02T02:04:24;19.10;82.30
16827;DHT22;8530;49.540;8.576;2023-07-02T02:06:51;19.10;82.20
16827;DHT22;8530;49.540;8.576;2023-07-02T02:09:18;19.10;82.20
16827;DHT22;8530;49.540;8.576;2023-07-02T02:11:48;19.00;82.20
16827;DHT22;8530;49.540;8.576;2023-07-02T02:14:15;19.00;82.20
16827;DHT22;8530;49.540;8.576;2023-07-02T02:16:43;19.00;82.20
16827;DHT22;8530;49.540;8.576;2023-07-02T02:19:10;19.00;82.20
16827;DHT22;8530;49.540;8.576;2023-07-02T02:21:37;18.90;82.10
16827;DHT22;8530;49.540;8.576;2023-07-02T02:24:05;18.90;82.20
16827;DHT22;8530;49.540;8.576;2023-07-02T02:26:32;18.90;82.10
16827;DHT22;8530;49.540;8.576;2023-07-02T02:29:00;18.80;81.80
16827;DHT22;8530;49.540;8.576;2023-07-02T02:31:27;18.80;81.60
16827;DHT22;8530;49.540;8.576;2023-07-02T02:33:55;18.80;81.30
16827;DHT22;8530;49.540;8.576;2023-07-02T02:36:21;18.70;81.00
16827;DHT22;8530;49.540;8.576;2023-07-02T02:38:48;18.70;80.70
16827;DHT22;8530;49.540;8.576;2023-07-02T02:41:15;18.60;80.40
16827;DHT22;8530;49.540;8.576;2023-07-02T02:43:41;18.60;80.10
16827;DHT22;8530;49.540;8.576;2023-07-02T02:46:10;18.50;79.80
16827;DHT22;8530;49.540;8.576;2023-07-02T02:48:37;18.40;79.50
16827;DHT22;8530;49.540;8.576;2023-07-02T02:51:04;18.40;79.40
16827;DHT22;8530;49.540;8.576;2023-07-02T02:53:30;18.30;79.10
16827;DHT22;8530;49.540;8.576;2023-07-02T02:55:57;18.20;78.80
16827;DHT22;8530;49.540;8.576;2023-07-02T02:58:24;18.20;78.70
16827;DHT22;8530;49.540;8.576;2023-07-02T03:00:50;18.10;78.40
16827;DHT22;8530;49.540;8.576;2023-07-02T03:03:18;18.00;78.00
16827;DHT22;8530;49.540;8.576;2023-07-02T03:05:45;18.00;77.70
16827;DHT22;8530;49.540;8.576;2023-07-02T03:08:13;17.90;77.30
16827;DHT22;8530;49.540;8.576;2023-07-02T03:10:40;17.90;77.10
16827;DHT22;8530;49.540;8.576;2023-07-02T03:13:07;17.80;76.80
16827;DHT22;8530;49.540;8.576;2023-07-02T03:15:34;17.70;76.50
16827;DHT22;8530;49.540;8.576;2023-07-02T03:18:01;17.70;76.30
16827;DHT22;8530;49.540;8.576;2023-07-02T03:20:29;17.70;76.20
16827;DHT22;8530;49.540;8.576;2023-07-02T03:22:55;17.70;76.00
16827;DHT22;8530;49.540;8.576;2023-07-02T03:25:22;17.70;75.80
16827;DHT22;8530;49.540;8.576;2023-07-02T03:27:49;17.70;75.50
16827;DHT22;8530;49.540;8.576;2023-07-02T03:30:15;17.80;75.20
16827;DHT22;8530;49.540;8.576;2023-07-02T03:32:42;17.80;75.00
16827;DHT22;8530;49.540;8.576;2023-07-02T03:35:09;17.90;74.70
16827;DHT22;8530;49.540;8.576;2023-07-02T03:37:37;17.90;74.40
16827;DHT22;8530;49.540;8.576;2023-07-02T03:40:04;17.90;74.10
16827;DHT22;8530;49.540;8.576;2023-07-02T03:42:32;18.00;73.90
16827;DHT22;8530;49.540;8.576;2023-07-02T03:44:59;18.00;73.50
16827;DHT22;8530;49.540;8.576;2023-07-02T03:47:26;18.10;73.30
16827;DHT22;8530;49.540;8.576;2023-07-02T03:49:53;18.10;73.00
16827;DHT22;8530;49.540;8.576;2023-07-02T03:52:20;18.10;72.60
16827;DHT22;8530;49.540;8.576;2023-07-02T03:54:48;18.20;72.40
16827;DHT22;8530;49.540;8.576;2023-07-02T03:57:15;18.20;72.10
16827;DHT22;8530;49.540;8.576;2023-07-02T03:59:41;18.30;71.80
16827;DHT22;8530;49.540;8.576;2023-07-02T04:02:08;18.30;71.60
16827;DHT22;8530;49.540;8.576;2023-07-02T04:04:35;18.30;71.40
16827;DHT22;8530;49.540;8.576;2023-07-02T04:07:01;18.50;71.20
16827;DHT22;8530;49.540;8.576;2023-07-02T04:09:28;18.50;70.80
16827;DHT22;8530;49.540;8.576;2023-07-02T04:11:56;18.50;70.50
16827;DHT22;8530;49.540;8.576;2023-07-02T04:14:22;18.50;70.30
16827;DHT22;8530;49.540;8.576;2023-07-02T04:16:49;18.50;70.10
16827;DHT22;8530;49.540;8.576;2023-07-02T04:19:16;18.60;70.40
16827;DHT22;8530;49.540;8.576;2023-07-02T04:21:42;18.60;70.30
16827;DHT22;8530;49.540;8.576;2023-07-02T04:24:09;18.70;70.10
16827;DHT22;8530;49.540;8.576;2023-07-02T04:26:36;18.80;69.90
16827;DHT22;8530;49.540;8.576;2023-07-02T04:29:04;18.80;69.50
16827;DHT22;8530;49.540;8.576;2023-07-02T04:31:30;18.80;69.20
16827;DHT22;8530;49.540;8.576;2023-07-02T04:33:57;18.90;69.00
16827;DHT22;8530;49.540;8.576;2023-07-02T04:36:24;19.00;68.70
16827;DHT22;8530;49.540;8.576;2023-07-02T04:38:51;19.10;68.50
16827;DHT22;8530;49.540;8.576;2023-07-02T04:41:18;19.30;68.30
16827;DHT22;8530;49.540;8.576;2023-07-02T04:43:45;19.40;67.80
16827;DHT22;8530;49.540;8.576;2023-07-02T04:46:14;19.40;67.50
16827;DHT22;8530;49.540;8.576;2023-07-02T04:48:43;19.40;67.10
16827;DHT22;8530;49.540;8.576;2023-07-02T04:51:09;19.50;67.00
16827;DHT22;8530;49.540;8.576;2023-07-02T04:53:36;19.50;66.70
16827;DHT22;8530;49.540;8.576;2023-07-02T04:56:04;19.60;66.60
16827;DHT22;8530;49.540;8.576;2023-07-02T04:58:30;19.60;66.20
16827;DHT22;8530;49.540;8.576;2023-07-02T05:00:57;19.70;66.10
16827;DHT22;8530;49.540;8.576;2023-07-02T05:03:26;19.80;65.90
16827;DHT22;8530;49.540;8.576;2023-07-02T05:05:53;19.90;65.60
16827;DHT22;8530;49.540;8.576;2023-07-02T05:08:19;20.00;65.40
16827;DHT22;8530;49.540;8.576;2023-07-02T05:10:46;20.10;65.20
16827;DHT22;8530;49.540;8.576;2023-07-02T05:13:13;20.30;65.10
16827;DHT22;8530;49.540;8.576;2023-07-02T05:15:40;20.50;64.80
16827;DHT22;8530;49.540;8.576;2023-07-02T05:18:06;20.60;64.40
16827;DHT22;8530;49.540;8.576;2023-07-02T05:20:34;20.60;64.00
16827;DHT22;8530;49.540;8.576;2023-07-02T05:23:01;20.80;63.70
16827;DHT22;8530;49.540;8.576;2023-07-02T05:25:28;20.90;63.40
16827;DHT22;8530;49.540;8.576;2023-07-02T05:27:54;21.20;63.20
16827;DHT22;8530;49.540;8.576;2023-07-02T05:30:21;21.50;62.80
16827;DHT22;8530;49.540;8.576;2023-07-02T05:32:48;21.70;62.20
16827;DHT22;8530;49.540;8.576;2023-07-02T05:35:15;21.90;61.50
16827;DHT22;8530;49.540;8.576;2023-07-02T05:37:43;22.00;60.70
16827;DHT22;8530;49.540;8.576;2023-07-02T05:40:11;22.10;60.00
16827;DHT22;8530;49.540;8.576;2023-07-02T05:42:38;22.20;59.40
16827;DHT22;8530;49.540;8.576;2023-07-02T05:45:05;22.40;59.00
16827;DHT22;8530;49.540;8.576;2023-07-02T05:47:31;23.10;58.90
16827;DHT22;8530;49.540;8.576;2023-07-02T05:49:58;24.20;58.20
16827;DHT22;8530;49.540;8.576;2023-07-02T05:52:25;25.00;56.70
16827;DHT22;8530;49.540;8.576;2023-07-02T05:54:53;26.10;55.30
16827;DHT22;8530;49.540;8.576;2023-07-02T05:57:20;27.60;53.10
16827;DHT22;8530;49.540;8.576;2023-07-02T05:59:46;27.90;50.20
16827;DHT22;8530;49.540;8.576;2023-07-02T06:02:13;28.30;48.20
16827;DHT22;8530;49.540;8.576;2023-07-02T06:04:40;29.10;46.60
16827;DHT22;8530;49.540;8.576;2023-07-02T06:07:07;29.60;44.60
16827;DHT22;8530;49.540;8.576;2023-07-02T06:09:33;30.10;42.80
16827;DHT22;8530;49.540;8.576;2023-07-02T06:12:01;30.90;41.10
16827;DHT22;8530;49.540;8.576;2023-07-02T06:14:28;32.10;39.30
16827;DHT22;8530;49.540;8.576;2023-07-02T06:16:55;32.10;37.40
16827;DHT22;8530;49.540;8.576;2023-07-02T06:19:23;31.50;35.80
16827;DHT22;8530;49.540;8.576;2023-07-02T06:21:49;31.30;35.20
16827;DHT22;8530;49.540;8.576;2023-07-02T06:24:16;31.30;34.80
16827;DHT22;8530;49.540;8.576;2023-07-02T06:26:43;31.20;34.20
16827;DHT22;8530;49.540;8.576;2023-07-02T06:29:11;31.80;33.90
16827;DHT22;8530;49.540;8.576;2023-07-02T06:31:38;33.30;33.00
16827;DHT22;8530;49.540;8.576;2023-07-02T06:34:04;34.70;31.60
16827;DHT22;8530;49.540;8.576;2023-07-02T06:36:31;35.70;29.90
16827;DHT22;8530;49.540;8.576;2023-07-02T06:38:58;37.00;28.60
16827;DHT22;8530;49.540;8.576;2023-07-02T06:41:25;38.40;27.30
16827;DHT22;8530;49.540;8.576;2023-07-02T06:43:52;40.00;25.60
16827;DHT22;8530;49.540;8.576;2023-07-02T06:46:20;41.40;24.10
16827;DHT22;8530;49.540;8.576;2023-07-02T06:48:47;42.40;22.70
16827;DHT22;8530;49.540;8.576;2023-07-02T06:51:34;42.50;21.60
16827;DHT22;8530;49.540;8.576;2023-07-02T06:54:04;41.90;20.60
16827;DHT22;8530;49.540;8.576;2023-07-02T06:56:33;41.70;20.30
16827;DHT22;8530;49.540;8.576;2023-07-02T06:59:01;42.10;19.90
16827;DHT22;8530;49.540;8.576;2023-07-02T07:01:32;42.50;19.40
16827;DHT22;8530;49.540;8.576;2023-07-02T07:03:59;43.30;19.00
16827;DHT22;8530;49.540;8.576;2023-07-02T07:06:28;44.30;18.40
16827;DHT22;8530;49.540;8.576;2023-07-02T07:08:56;45.10;17.80
16827;DHT22;8530;49.540;8.576;2023-07-02T07:11:22;45.80;17.10
16827;DHT22;8530;49.540;8.576;2023-07-02T07:13:49;46.60;16.50
16827;DHT22;8530;49.540;8.576;2023-07-02T07:16:16;47.30;15.90
16827;DHT22;8530;49.540;8.576;2023-07-02T07:18:46;47.90;15.50
16827;DHT22;8530;49.540;8.576;2023-07-02T07:21:13;48.20;14.80
16827;DHT22;8530;49.540;8.576;2023-07-02T07:23:40;48.40;14.40
16827;DHT22;8530;49.540;8.576;2023-07-02T07:26:07;48.40;13.90
16827;DHT22;8530;49.540;8.576;2023-07-02T07:28:34;48.50;13.50
16827;DHT22;8530;49.540;8.576;2023-07-02T07:31:01;48.50;13.10
16827;DHT22;8530;49.540;8.576;2023-07-02T07:33:28;48.40;12.80
16827;DHT22;8530;49.540;8.576;2023-07-02T07:35:56;48.50;12.60
16827;DHT22;8530;49.540;8.576;2023-07-02T07:38:37;48.70;12.40
16827;DHT22;8530;49.540;8.576;2023-07-02T07:41:06;48.90;12.10
16827;DHT22;8530;49.540;8.576;2023-07-02T07:43:34;49.10;12.10
16827;DHT22;8530;49.540;8.576;2023-07-02T07:46:01;49.20;11.90
16827;DHT22;8530;49.540;8.576;2023-07-02T07:48:27;49.10;11.80
16827;DHT22;8530;49.540;8.576;2023-07-02T07:50:54;49.10;11.60
16827;DHT22;8530;49.540;8.576;2023-07-02T07:53:25;49.00;11.40
16827;DHT22;8530;49.540;8.576;2023-07-02T07:55:52;48.70;11.10
16827;DHT22;8530;49.540;8.576;2023-07-02T07:58:18;48.30;10.90
16827;DHT22;8530;49.540;8.576;2023-07-02T08:00:45;48.20;10.90
16827;DHT22;8530;49.540;8.576;2023-07-02T08:03:12;48.40;10.80
16827;DHT22;8530;49.540;8.576;2023-07-02T08:05:39;48.60;10.60
16827;DHT22;8530;49.540;8.576;2023-07-02T08:08:06;48.40;10.40
16827;DHT22;8530;49.540;8.576;2023-07-02T08:10:35;48.10;10.30
16827;DHT22;8530;49.540;8.576;2023-07-02T08:13:02;47.70;10.20
16827;DHT22;8530;49.540;8.576;2023-07-02T08:15:29;47.20;10.20
16827;DHT22;8530;49.540;8.576;2023-07-02T08:17:55;45.90;10.30
16827;DHT22;8530;49.540;8.576;2023-07-02T08:20:24;44.20;10.50
16827;DHT22;8530;49.540;8.576;2023-07-02T08:22:51;42.80;10.80
16827;DHT22;8530;49.540;8.576;2023-07-02T08:25:18;41.40;11.20
16827;DHT22;8530;49.540;8.576;2023-07-02T08:27:51;40.10;11.60
16827;DHT22;8530;49.540;8.576;2023-07-02T08:30:18;38.90;12.20
16827;DHT22;8530;49.540;8.576;2023-07-02T08:32:45;37.80;12.70
16827;DHT22;8530;49.540;8.576;2023-07-02T08:35:12;36.90;13.40
16827;DHT22;8530;49.540;8.576;2023-07-02T08:37:39;36.00;14.00
16827;DHT22;8530;49.540;8.576;2023-07-02T08:40:14;35.00;14.80
16827;DHT22;8530;49.540;8.576;2023-07-02T08:42:42;34.30;15.70
16827;DHT22;8530;49.540;8.576;2023-07-02T08:45:11;33.70;16.30
16827;DHT22;8530;49.540;8.576;2023-07-02T08:47:38;33.30;16.80
16827;DHT22;8530;49.540;8.576;2023-07-02T08:50:06;32.90;17.20
16827;DHT22;8530;49.540;8.576;2023-07-02T08:52:33;32.60;17.80
16827;DHT22;8530;49.540;8.576;2023-07-02T08:55:00;32.40;18.20
16827;DHT22;8530;49.540;8.576;2023-07-02T08:57:27;32.30;18.60
16827;DHT22;8530;49.540;8.576;2023-07-02T08:59:54;32.20;18.90
16827;DHT22;8530;49.540;8.576;2023-07-02T09:02:31;32.00;19.20
16827;DHT22;8530;49.540;8.576;2023-07-02T09:04:59;31.80;19.70
16827;DHT22;8530;49.540;8.576;2023-07-02T09:07:26;31.60;19.80
16827;DHT22;8530;49.540;8.576;2023-07-02T09:09:53;31.30;20.00
16827;DHT22;8530;49.540;8.576;2023-07-02T09:12:27;31.10;20.40
16827;DHT22;8530;49.540;8.576;2023-07-02T09:14:55;30.90;20.70
16827;DHT22;8530;49.540;8.576;2023-07-02T09:17:27;30.40;20.80
16827;DHT22;8530;49.540;8.576;2023-07-02T09:19:57;29.90;21.20
16827;DHT22;8530;49.540;8.576;2023-07-02T09:22:26;29.50;21.70
16827;DHT22;8530;49.540;8.576;2023-07-02T09:24:53;29.20;22.10
16827;DHT22;8530;49.540;8.576;2023-07-02T09:27:21;29.10;22.50
16827;DHT22;8530;49.540;8.576;2023-07-02T09:29:51;29.10;22.70
16827;DHT22;8530;49.540;8.576;2023-07-02T09:32:24;29.20;23.00
16827;DHT22;8530;49.540;8.576;2023-07-02T09:34:55;29.30;23.00
16827;DHT22;8530;49.540;8.576;2023-07-02T09:37:24;29.10;23.00
16827;DHT22;8530;49.540;8.576;2023-07-02T09:39:51;28.80;23.10
16827;DHT22;8530;49.540;8.576;2023-07-02T09:42:20;28.60;23.50
16827;DHT22;8530;49.540;8.576;2023-07-02T09:44:48;28.50;23.80
16827;DHT22;8530;49.540;8.576;2023-07-02T09:47:19;28.50;24.00
16827;DHT22;8530;49.540;8.576;2023-07-02T09:49:52;28.50;24.20
16827;DHT22;8530;49.540;8.576;2023-07-02T09:52:22;28.40;24.30
16827;DHT22;8530;49.540;8.576;2023-07-02T09:54:50;28.20;24.30
16827;DHT22;8530;49.540;8.576;2023-07-02T09:57:16;27.90;24.40
16827;DHT22;8530;49.540;8.576;2023-07-02T09:59:43;27.80;24.60
16827;DHT22;8530;49.540;8.576;2023-07-02T10:02:10;27.90;24.60
16827;DHT22;8530;49.540;8.576;2023-07-02T10:04:48;27.90;24.50
16827;DHT22;8530;49.540;8.576;2023-07-02T10:07:28;27.60;24.50
16827;DHT22;8530;49.540;8.576;2023-07-02T10:09:55;27.40;24.80
16827;DHT22;8530;49.540;8.576;2023-07-02T10:12:23;27.50;25.00
16827;DHT22;8530;49.540;8.576;2023-07-02T10:14:52;27.60;25.20
16827;DHT22;8530;49.540;8.576;2023-07-02T10:17:26;27.60;25.30
16827;DHT22;8530;49.540;8.576;2023-07-02T10:19:54;27.60;25.20
16827;DHT22;8530;49.540;8.576;2023-07-02T10:22:22;27.80;25.20
16827;DHT22;8530;49.540;8.576;2023-07-02T10:24:54;28.00;25.10
16827;DHT22;8530;49.540;8.576;2023-07-02T10:27:33;28.10;25.00
16827;DHT22;8530;49.540;8.576;2023-07-02T10:30:01;28.00;24.90
16827;DHT22;8530;49.540;8.576;2023-07-02T10:32:29;27.70;24.80
16827;DHT22;8530;49.540;8.576;2023-07-02T10:34:59;27.40;24.90
16827;DHT22;8530;49.540;8.576;2023-07-02T10:37:35;27.20;25.00
16827;DHT22;8530;49.540;8.576;2023-07-02T10:40:06;27.10;25.20
16827;DHT22;8530;49.540;8.576;2023-07-02T10:42:44;27.20;25.40
16827;DHT22;8530;49.540;8.576;2023-07-02T10:45:11;27.20;25.60
16827;DHT22;8530;49.540;8.576;2023-07-02T10:47:39;27.30;25.60
16827;DHT22;8530;49.540;8.576;2023-07-02T10:50:14;27.50;25.50
16827;DHT22;8530;49.540;8.576;2023-07-02T10:52:41;28.00;25.40
16827;DHT22;8530;49.540;8.576;2023-07-02T10:55:10;28.10;25.20
16827;DHT22;8530;49.540;8.576;2023-07-02T10:57:38;28.30;25.10
16827;DHT22;8530;49.540;8.576;2023-07-02T11:00:06;28.80;24.90
16827;DHT22;8530;49.540;8.576;2023-07-02T11:02:34;29.00;24.70
16827;DHT22;8530;49.540;8.576;2023-07-02T11:05:01;29.20;24.50
16827;DHT22;8530;49.540;8.576;2023-07-02T11:07:28;29.20;24.30
16827;DHT22;8530;49.540;8.576;2023-07-02T11:09:55;29.30;24.10
16827;DHT22;8530;49.540;8.576;2023-07-02T11:14:51;28.80;23.90
16827;DHT22;8530;49.540;8.576;2023-07-02T11:17:24;28.60;24.00
16827;DHT22;8530;49.540;8.576;2023-07-02T11:19:53;28.50;24.10
16827;DHT22;8530;49.540;8.576;2023-07-02T11:22:19;28.50;24.00
16827;DHT22;8530;49.540;8.576;2023-07-02T11:24:46;28.40;23.90
16827;DHT22;8530;49.540;8.576;2023-07-02T11:27:21;28.30;23.90
16827;DHT22;8530;49.540;8.576;2023-07-02T11:29:48;28.30;24.00
16827;DHT22;8530;49.540;8.576;2023-07-02T11:32:26;28.20;23.90
16827;DHT22;8530;49.540;8.576;2023-07-02T11:34:54;28.10;23.90
16827;DHT22;8530;49.540;8.576;2023-07-02T11:37:20;28.30;23.90
16827;DHT22;8530;49.540;8.576;2023-07-02T11:39:48;28.50;23.70
16827;DHT22;8530;49.540;8.576;2023-07-02T11:42:15;28.60;23.60
16827;DHT22;8530;49.540;8.576;2023-07-02T11:44:41;28.80;23.50
16827;DHT22;8530;49.540;8.576;2023-07-02T11:47:08;28.80;23.40
16827;DHT22;8530;49.540;8.576;2023-07-02T11:49:36;28.60;23.30
16827;DHT22;8530;49.540;8.576;2023-07-02T11:52:04;28.70;23.50
16827;DHT22;8530;49.540;8.576;2023-07-02T11:54:30;28.90;23.50
16827;DHT22;8530;49.540;8.576;2023-07-02T11:56:57;29.30;23.50
16827;DHT22;8530;49.540;8.576;2023-07-02T11:59:24;29.60;23.40
16827;DHT22;8530;49.540;8.576;2023-07-02T12:01:51;29.80;23.10
16827;DHT22;8530;49.540;8.576;2023-07-02T12:04:18;30.20;22.90
16827;DHT22;8530;49.540;8.576;2023-07-02T12:06:46;30.50;22.50
16827;DHT22;8530;49.540;8.576;2023-07-02T12:09:13;30.70;22.30
16827;DHT22;8530;49.540;8.576;2023-07-02T12:11:39;30.70;22.20
16827;DHT22;8530;49.540;8.576;2023-07-02T12:14:07;30.60;22.00
16827;DHT22;8530;49.540;8.576;2023-07-02T12:16:34;30.40;21.80
16827;DHT22;8530;49.540;8.576;2023-07-02T12:19:00;30.20;21.70
16827;DHT22;8530;49.540;8.576;2023-07-02T12:21:27;29.90;21.80
16827;DHT22;8530;49.540;8.576;2023-07-02T12:23:55;29.80;21.80
16827;DHT22;8530;49.540;8.576;2023-07-02T12:26:22;29.60;22.00
16827;DHT22;8530;49.540;8.576;2023-07-02T12:28:49;29.50;22.10
16827;DHT22;8530;49.540;8.576;2023-07-02T12:31:15;29.60;22.20
16827;DHT22;8530;49.540;8.576;2023-07-02T12:33:42;29.70;22.20
16827;DHT22;8530;49.540;8.576;2023-07-02T12:36:09;30.00;22.20
16827;DHT22;8530;49.540;8.576;2023-07-02T12:38:36;30.30;22.20
16827;DHT22;8530;49.540;8.576;2023-07-02T12:41:04;30.20;21.90
16827;DHT22;8530;49.540;8.576;2023-07-02T12:43:30;30.00;21.90
16827;DHT22;8530;49.540;8.576;2023-07-02T12:45:57;29.80;21.90
16827;DHT22;8530;49.540;8.576;2023-07-02T12:48:23;29.60;21.90
16827;DHT22;8530;49.540;8.576;2023-07-02T12:50:54;29.50;22.00
16827;DHT22;8530;49.540;8.576;2023-07-02T12:53:21;29.40;22.10
16827;DHT22;8530;49.540;8.576;2023-07-02T12:55:48;29.50;22.10
16827;DHT22;8530;49.540;8.576;2023-07-02T12:58:16;29.60;22.10
16827;DHT22;8530;49.540;8.576;2023-07-02T13:00:42;29.80;22.10
16827;DHT22;8530;49.540;8.576;2023-07-02T13:03:11;29.80;21.90
16827;DHT22;8530;49.540;8.576;2023-07-02T13:05:38;29.70;21.90
16827;DHT22;8530;49.540;8.576;2023-07-02T13:08:05;29.60;21.90
16827;DHT22;8530;49.540;8.576;2023-07-02T13:10:32;29.60;22.00
16827;DHT22;8530;49.540;8.576;2023-07-02T13:12:59;29.50;22.00
16827;DHT22;8530;49.540;8.576;2023-07-02T13:15:28;29.50;22.10
16827;DHT22;8530;49.540;8.576;2023-07-02T13:17:54;29.40;22.10
16827;DHT22;8530;49.540;8.576;2023-07-02T13:20:21;29.50;22.30
16827;DHT22;8530;49.540;8.576;2023-07-02T13:22:48;29.30;22.30
16827;DHT22;8530;49.540;8.576;2023-07-02T13:25:14;29.20;22.40
16827;DHT22;8530;49.540;8.576;2023-07-02T13:27:41;29.20;22.50
16827;DHT22;8530;49.540;8.576;2023-07-02T13:30:08;29.20;22.50
16827;DHT22;8530;49.540;8.576;2023-07-02T13:32:36;29.10;22.50
16827;DHT22;8530;49.540;8.576;2023-07-02T13:35:04;29.00;22.70
16827;DHT22;8530;49.540;8.576;2023-07-02T13:37:31;29.20;22.50
16827;DHT22;8530;49.540;8.576;2023-07-02T13:39:57;29.60;22.50
16827;DHT22;8530;49.540;8.576;2023-07-02T13:42:24;29.90;22.40
16827;DHT22;8530;49.540;8.576;2023-07-02T13:44:51;30.10;22.30
16827;DHT22;8530;49.540;8.576;2023-07-02T13:47:17;30.30;22.20
16827;DHT22;8530;49.540;8.576;2023-07-02T13:49:45;30.30;22.10
16827;DHT22;8530;49.540;8.576;2023-07-02T13:52:12;30.20;21.90
16827;DHT22;8530;49.540;8.576;2023-07-02T13:54:39;30.20;22.00
16827;DHT22;8530;49.540;8.576;2023-07-02T13:57:06;30.10;22.00
16827;DHT22;8530;49.540;8.576;2023-07-02T13:59:34;30.10;22.10
16827;DHT22;8530;49.540;8.576;2023-07-02T14:02:01;30.00;22.00
16827;DHT22;8530;49.540;8.576;2023-07-02T14:04:27;29.90;22.10
16827;DHT22;8530;49.540;8.576;2023-07-02T14:06:54;29.80;22.00
16827;DHT22;8530;49.540;8.576;2023-07-02T14:09:21;29.60;22.10
16827;DHT22;8530;49.540;8.576;2023-07-02T14:11:47;29.40;22.20
16827;DHT22;8530;49.540;8.576;2023-07-02T14:14:14;29.20;22.30
16827;DHT22;8530;49.540;8.576;2023-07-02T14:16:42;29.10;22.50
16827;DHT22;8530;49.540;8.576;2023-07-02T14:19:09;29.20;22.60
16827;DHT22;8530;49.540;8.576;2023-07-02T14:21:35;29.30;22.50
16827;DHT22;8530;49.540;8.576;2023-07-02T14:24:02;29.30;22.50
16827;DHT22;8530;49.540;8.576;2023-07-02T14:26:30;29.20;22.50
16827;DHT22;8530;49.540;8.576;2023-07-02T14:28:57;29.30;22.60
16827;DHT22;8530;49.540;8.576;2023-07-02T14:31:24;29.30;22.50
16827;DHT22;8530;49.540;8.576;2023-07-02T14:33:52;29.30;22.50
16827;DHT22;8530;49.540;8.576;2023-07-02T14:36:20;29.30;22.50
16827;DHT22;8530;49.540;8.576;2023-07-02T14:38:46;29.20;22.50
16827;DHT22;8530;49.540;8.576;2023-07-02T14:41:13;29.10;22.60
16827;DHT22;8530;49.540;8.576;2023-07-02T14:43:40;28.80;22.70
16827;DHT22;8530;49.540;8.576;2023-07-02T14:46:07;28.50;22.90
16827;DHT22;8530;49.540;8.576;2023-07-02T14:48:33;28.40;23.10
16827;DHT22;8530;49.540;8.576;2023-07-02T14:51:02;28.30;23.10
16827;DHT22;8530;49.540;8.576;2023-07-02T14:53:30;28.40;23.20
16827;DHT22;8530;49.540;8.576;2023-07-02T14:55:58;28.70;23.20
16827;DHT22;8530;49.540;8.576;2023-07-02T14:58:26;28.80;23.10
16827;DHT22;8530;49.540;8.576;2023-07-02T15:00:56;28.80;23.10
16827;DHT22;8530;49.540;8.576;2023-07-02T15:03:24;28.80;23.10
16827;DHT22;8530;49.540;8.576;2023-07-02T15:05:52;28.70;23.10
16827;DHT22;8530;49.540;8.576;2023-07-02T15:08:21;28.60;23.10
16827;DHT22;8530;49.540;8.576;2023-07-02T15:10:49;28.50;23.20
16827;DHT22;8530;49.540;8.576;2023-07-02T15:13:17;28.70;23.30
16827;DHT22;8530;49.540;8.576;2023-07-02T15:15:45;28.90;23.20
16827;DHT22;8530;49.540;8.576;2023-07-02T15:18:12;29.00;23.10
16827;DHT22;8530;49.540;8.576;2023-07-02T15:20:39;29.00;23.10
16827;DHT22;8530;49.540;8.576;2023-07-02T15:23:06;28.90;23.10
16827;DHT22;8530;49.540;8.576;2023-07-02T15:25:34;28.90;23.20
16827;DHT22;8530;49.540;8.576;2023-07-02T15:28:01;29.10;23.20
16827;DHT22;8530;49.540;8.576;2023-07-02T15:30:28;29.30;23.10
16827;DHT22;8530;49.540;8.576;2023-07-02T15:32:55;29.40;23.00
16827;DHT22;8530;49.540;8.576;2023-07-02T15:35:22;29.10;23.00
16827;DHT22;8530;49.540;8.576;2023-07-02T15:37:49;28.90;23.00
16827;DHT22;8530;49.540;8.576;2023-07-02T15:40:16;28.70;23.10
16827;DHT22;8530;49.540;8.576;2023-07-02T15:42:44;28.70;23.30
16827;DHT22;8530;49.540;8.576;2023-07-02T15:45:11;28.90;23.30
16827;DHT22;8530;49.540;8.576;2023-07-02T15:47:37;29.00;23.20
16827;DHT22;8530;49.540;8.576;2023-07-02T15:50:05;29.00;23.20